TimeMST,TemperatureF,Dew PointF,Humidity,Sea Level PressureIn,VisibilityMPH,Wind Direction,Wind SpeedMPH,Gust SpeedMPH,PrecipitationIn,Events,Conditions,WindDirDegrees,DateUTC
12:53 AM,26.1,19.9,78,30.30,10.0,SE,3.5,-,N/A,,Overcast,140,2013-02-01 07:53:00
1:53 AM,25.0,21.0,85,30.31,10.0,Calm,Calm,-,N/A,,Overcast,0,2013-02-01 08:53:00
2:53 AM,27.0,19.9,75,30.30,10.0,Calm,Calm,-,N/A,,Overcast,0,2013-02-01 09:53:00
3:53 AM,26.1,21.0,81,30.30,10.0,Calm,Calm,-,N/A,,Overcast,0,2013-02-01 10:53:00
4:53 AM,30.9,21.0,67,30.28,10.0,SSW,12.7,-,N/A,,Overcast,210,2013-02-01 11:53:00
5:53 AM,30.9,21.0,67,30.28,10.0,SW,12.7,-,N/A,,Overcast,220,2013-02-01 12:53:00
6:53 AM,30.9,21.0,67,30.27,10.0,SSW,15.0,-,N/A,,Overcast,210,2013-02-01 13:53:00
7:53 AM,32.0,21.0,64,30.29,10.0,SW,16.1,-,N/A,,Overcast,220,2013-02-01 14:53:00
8:53 AM,32.0,21.9,66,30.29,10.0,SW,10.4,-,N/A,,Overcast,220,2013-02-01 15:53:00
9:53 AM,33.1,21.9,64,30.28,10.0,SSW,15.0,-,N/A,,Overcast,210,2013-02-01 16:53:00
10:53 AM,34.0,21.9,61,30.29,10.0,SW,15.0,-,N/A,,Overcast,220,2013-02-01 17:53:00
11:53 AM,34.0,23.0,64,30.28,10.0,SSW,17.3,23.0,N/A,,Overcast,210,2013-02-01 18:53:00
12:53 PM,36.0,21.9,57,30.26,10.0,WSW,15.0,-,N/A,,Overcast,240,2013-02-01 19:53:00
1:53 PM,36.0,23.0,59,30.27,10.0,West,16.1,-,N/A,,Overcast,260,2013-02-01 20:53:00
2:53 PM,35.1,24.1,64,30.28,10.0,West,12.7,-,N/A,,Overcast,270,2013-02-01 21:53:00
3:53 PM,35.1,21.9,59,30.29,10.0,WSW,13.8,-,N/A,,Overcast,240,2013-02-01 22:53:00
4:53 PM,32.0,21.0,64,30.28,10.0,WSW,15.0,-,N/A,,Scattered Clouds,240,2013-02-01 23:53:00
5:53 PM,32.0,21.0,64,30.30,10.0,WSW,12.7,-,N/A,,Overcast,240,2013-02-02 00:53:00
6:53 PM,28.9,19.9,69,30.35,10.0,WNW,4.6,-,N/A,,Overcast,300,2013-02-02 01:53:00
7:53 PM,26.1,18.0,71,30.38,10.0,NW,6.9,-,N/A,,Mostly Cloudy,310,2013-02-02 02:53:00
8:53 PM,26.1,17.1,69,30.40,10.0,WSW,3.5,-,N/A,,Partly Cloudy,250,2013-02-02 03:53:00
9:53 PM,21.0,14.0,74,30.44,10.0,Calm,Calm,-,N/A,,Clear,0,2013-02-02 04:53:00
10:53 PM,17.1,10.9,77,30.47,10.0,Calm,Calm,-,N/A,,Clear,0,2013-02-02 05:53:00
11:53 PM,16.0,10.0,77,30.50,10.0,Calm,Calm,-,N/A,,Clear,0,2013-02-02 06:53:00